createdAt,value
2018-11-28T00:00:11.902Z,8.43
2018-11-28T00:02:40.212Z,8.47
2018-11-28T00:05:08.521Z,8.00
2018-11-28T00:07:36.843Z,7.57
2018-11-28T00:10:05.147Z,9.57
2018-11-28T00:12:33.470Z,16.63
2018-11-28T00:15:01.796Z,28.60
2018-11-28T00:17:30.126Z,28.20
2018-11-28T00:19:58.455Z,42.83
2018-11-28T00:22:26.781Z,46.13
2018-11-28T00:24:55.137Z,44.97
2018-11-28T00:27:23.467Z,41.73
2018-11-28T00:29:51.795Z,40.70
2018-11-28T00:32:20.128Z,41.03
2018-11-28T00:34:48.444Z,38.40
2018-11-28T00:37:16.773Z,46.13
2018-11-28T00:39:45.102Z,46.70
2018-11-28T00:42:13.463Z,38.97
2018-11-28T00:44:41.805Z,38.50
2018-11-28T00:47:10.148Z,34.50
2018-11-28T00:49:38.570Z,29.37
2018-11-28T00:52:06.898Z,26.13
2018-11-28T00:54:35.228Z,23.03
2018-11-28T00:57:03.553Z,24.67
2018-11-28T00:59:31.886Z,22.77
2018-11-28T01:02:00.216Z,20.30
2018-11-28T01:04:28.558Z,23.23
2018-11-28T01:06:56.870Z,16.43
2018-11-28T01:09:25.198Z,17.10
2018-11-28T01:11:53.521Z,20.77
2018-11-28T01:14:21.844Z,17.43
2018-11-28T01:16:50.167Z,17.47
2018-11-28T01:19:18.514Z,17.90
2018-11-28T01:21:46.837Z,16.47
2018-11-28T01:24:15.145Z,18.70
2018-11-28T01:26:43.495Z,15.47
2018-11-28T01:29:11.812Z,14.77
2018-11-28T01:31:40.130Z,15.77
2018-11-28T01:34:08.455Z,15.93
2018-11-28T01:36:36.773Z,19.07
2018-11-28T01:39:05.100Z,17.57
2018-11-28T01:41:33.437Z,25.43
2018-11-28T01:44:01.764Z,32.30
2018-11-28T01:46:30.096Z,32.10
2018-11-28T01:48:58.420Z,38.87
2018-11-28T01:51:26.748Z,29.57
2018-11-28T01:53:55.077Z,31.87
2018-11-28T01:56:23.400Z,29.10
2018-11-28T01:58:51.750Z,23.10
2018-11-28T02:01:20.098Z,20.43
2018-11-28T02:03:48.386Z,17.57
2018-11-28T02:06:16.703Z,12.50
2018-11-28T02:08:45.019Z,10.30
2018-11-28T02:11:13.346Z,7.87
2018-11-28T02:13:41.659Z,7.37
2018-11-28T02:16:09.972Z,6.70
2018-11-28T02:18:38.295Z,10.67
2018-11-28T02:21:06.609Z,10.07
2018-11-28T02:23:34.929Z,6.23
2018-11-28T02:26:03.248Z,14.83
2018-11-28T02:28:31.603Z,14.40
2018-11-28T02:30:59.933Z,14.77
2018-11-28T02:33:28.245Z,11.83
2018-11-28T02:35:56.559Z,10.03
2018-11-28T02:38:24.885Z,9.77
2018-11-28T02:40:53.199Z,10.93
2018-11-28T02:43:21.519Z,12.23
2018-11-28T02:45:49.842Z,10.97
2018-11-28T02:48:18.156Z,7.87
2018-11-28T02:50:46.481Z,10.47
2018-11-28T02:53:14.814Z,15.07
2018-11-28T02:55:43.139Z,26.23
2018-11-28T02:58:11.467Z,29.03
2018-11-28T03:00:39.794Z,30.27
2018-11-28T03:03:08.135Z,28.97
2018-11-28T03:05:36.476Z,23.27
2018-11-28T03:08:04.808Z,24.23
2018-11-28T03:10:33.128Z,14.70
2018-11-28T03:13:01.445Z,12.27
2018-11-28T03:15:29.771Z,10.93
2018-11-28T03:17:58.083Z,10.40
2018-11-28T03:20:26.403Z,8.67
2018-11-28T03:22:54.948Z,8.93
2018-11-28T03:25:23.296Z,6.83
2018-11-28T03:27:51.608Z,6.10
2018-11-28T03:30:19.945Z,7.03
2018-11-28T03:32:48.269Z,10.73
2018-11-28T03:35:16.603Z,9.80
2018-11-28T03:37:45.185Z,15.03
2018-11-28T03:40:13.512Z,13.87
2018-11-28T03:42:41.852Z,17.70
2018-11-28T03:45:10.182Z,46.57
2018-11-28T03:47:38.515Z,82.27
2018-11-28T03:50:06.841Z,42.03
2018-11-28T03:52:35.165Z,25.40
2018-11-28T03:55:03.504Z,51.23
2018-11-28T03:57:31.833Z,38.03
2018-11-28T04:00:00.159Z,20.77
2018-11-28T04:02:28.483Z,15.83
2018-11-28T04:04:56.807Z,16.30
2018-11-28T04:07:25.132Z,20.27
2018-11-28T04:09:53.485Z,19.77
2018-11-28T04:12:21.793Z,17.37
2018-11-28T04:14:50.124Z,22.67
2018-11-28T04:17:18.448Z,20.57
2018-11-28T04:19:46.777Z,20.13
2018-11-28T04:22:15.165Z,23.67
2018-11-28T04:24:43.480Z,27.90
2018-11-28T04:27:11.817Z,25.77
2018-11-28T04:29:40.144Z,18.73
2018-11-28T04:32:08.481Z,14.23
2018-11-28T04:34:36.814Z,14.50
2018-11-28T04:37:05.143Z,12.57
2018-11-28T04:39:33.475Z,14.43
2018-11-28T04:42:01.886Z,10.63
2018-11-28T04:44:30.199Z,14.67
2018-11-28T04:46:58.539Z,16.53
2018-11-28T04:49:26.867Z,22.10
2018-11-28T04:51:55.190Z,14.90
2018-11-28T04:54:23.514Z,14.87
2018-11-28T04:56:51.826Z,16.87
2018-11-28T04:59:20.141Z,16.40
2018-11-28T05:01:48.472Z,18.03
2018-11-28T05:04:16.797Z,19.57
2018-11-28T05:06:45.122Z,19.70
2018-11-28T05:09:13.452Z,24.40
2018-11-28T05:11:41.782Z,28.90
2018-11-28T05:14:10.100Z,34.43
2018-11-28T05:16:38.441Z,30.97
2018-11-28T05:19:06.786Z,22.23
2018-11-28T05:21:35.112Z,15.70
2018-11-28T05:24:03.705Z,21.27
2018-11-28T05:26:32.042Z,10.23
2018-11-28T05:29:00.354Z,7.60
2018-11-28T05:31:28.679Z,7.23
2018-11-28T05:33:57.159Z,12.37
2018-11-28T05:36:26.185Z,9.13
2018-11-28T05:38:54.713Z,7.93
2018-11-28T05:41:23.040Z,13.40
2018-11-28T05:43:51.352Z,7.37
2018-11-28T05:46:19.679Z,8.10
2018-11-28T05:48:47.999Z,10.47
2018-11-28T05:51:16.319Z,6.40
2018-11-28T05:53:44.668Z,10.43
2018-11-28T05:56:12.983Z,7.80
2018-11-28T05:58:41.294Z,8.33
2018-11-28T06:01:09.629Z,7.13
2018-11-28T06:03:37.953Z,7.77
2018-11-28T06:06:06.293Z,15.20
2018-11-28T06:08:34.621Z,20.73
2018-11-28T06:11:02.949Z,49.00
2018-11-28T06:13:31.287Z,24.37
2018-11-28T06:15:59.631Z,30.57
2018-11-28T06:18:27.951Z,31.03
2018-11-28T06:20:56.510Z,36.57
2018-11-28T06:23:24.660Z,39.17
2018-11-28T06:25:53.446Z,48.63
2018-11-28T06:28:21.785Z,45.67
2018-11-28T06:30:50.140Z,52.30
2018-11-28T06:33:18.476Z,54.53
2018-11-28T06:35:46.882Z,89.50
2018-11-28T06:38:15.219Z,80.03
2018-11-28T06:40:43.563Z,60.53
2018-11-28T06:43:11.909Z,84.97
2018-11-28T06:45:40.803Z,112.23
2018-11-28T06:48:09.161Z,153.63
2018-11-28T06:50:37.502Z,114.97
2018-11-28T06:53:06.126Z,106.57
2018-11-28T06:55:34.467Z,56.83
2018-11-28T06:58:02.802Z,36.93
2018-11-28T07:00:31.137Z,40.47
2018-11-28T07:02:59.467Z,59.07
2018-11-28T07:05:27.798Z,38.77
2018-11-28T07:07:56.424Z,24.50
2018-11-28T07:10:24.745Z,17.77
2018-11-28T07:12:53.129Z,40.47
2018-11-28T07:15:21.759Z,24.67
2018-11-28T07:17:50.101Z,20.70
2018-11-28T07:20:18.453Z,23.13
2018-11-28T07:22:47.050Z,24.13
2018-11-28T07:25:15.404Z,36.13
2018-11-28T07:27:45.332Z,64.30
2018-11-28T07:30:12.079Z,58.00
2018-11-28T07:32:40.739Z,74.33
2018-11-28T07:35:09.073Z,105.83
2018-11-28T07:37:37.490Z,79.67
2018-11-28T07:40:05.798Z,56.73
2018-11-28T07:42:34.170Z,42.10
2018-11-28T07:45:02.526Z,39.63
2018-11-28T07:47:30.905Z,38.13
2018-11-28T07:49:59.220Z,36.97
2018-11-28T07:52:27.545Z,74.30
2018-11-28T07:54:55.884Z,84.87
2018-11-28T07:57:24.269Z,157.30
2018-11-28T07:59:52.610Z,158.33
2018-11-28T08:02:21.202Z,56.73
2018-11-28T08:04:49.533Z,30.07
2018-11-28T08:07:17.899Z,27.83
2018-11-28T08:09:46.237Z,18.53
2018-11-28T08:12:14.578Z,21.67
2018-11-28T08:14:42.925Z,20.90
2018-11-28T08:17:11.261Z,23.33
2018-11-28T08:19:39.597Z,25.53
2018-11-28T08:22:07.942Z,29.10
2018-11-28T08:24:36.269Z,173.30
2018-11-28T08:27:04.609Z,48.67
2018-11-28T08:29:32.927Z,34.90
2018-11-28T08:32:01.310Z,26.87
2018-11-28T08:34:29.594Z,19.80
2018-11-28T08:36:57.938Z,33.20
2018-11-28T08:39:26.309Z,37.43
2018-11-28T08:41:54.690Z,28.67
2018-11-28T08:44:22.996Z,31.33
2018-11-28T08:46:51.346Z,37.30
2018-11-28T08:49:19.672Z,88.23
2018-11-28T08:51:48.013Z,112.00
2018-11-28T08:54:16.365Z,110.70
2018-11-28T08:56:44.721Z,94.27
2018-11-28T08:59:13.043Z,65.53
2018-11-28T09:01:41.370Z,59.47
2018-11-28T09:04:09.706Z,72.07
2018-11-28T09:06:38.041Z,96.10
2018-11-28T09:09:06.370Z,90.83
2018-11-28T09:11:34.740Z,103.40
2018-11-28T09:14:04.688Z,102.10
2018-11-28T09:16:31.431Z,104.10
2018-11-28T09:18:59.763Z,98.30
2018-11-28T09:21:28.091Z,90.37
2018-11-28T09:23:56.421Z,86.23
2018-11-28T09:26:24.753Z,85.83
2018-11-28T09:28:53.134Z,82.53
2018-11-28T09:31:21.462Z,84.40
2018-11-28T09:33:49.815Z,87.43
2018-11-28T09:36:18.436Z,85.50
2018-11-28T09:38:47.069Z,81.90
2018-11-28T09:41:15.433Z,77.50
2018-11-28T09:43:43.775Z,73.00
2018-11-28T09:46:12.092Z,62.57
2018-11-28T09:48:40.427Z,62.17
2018-11-28T09:51:08.758Z,59.63
2018-11-28T09:53:37.086Z,63.70
2018-11-28T09:56:05.410Z,57.73
2018-11-28T09:58:33.756Z,52.00
2018-11-28T10:01:02.092Z,25.00
2018-11-28T10:03:30.424Z,10.93
2018-11-28T10:05:58.743Z,7.93
2018-11-28T10:08:27.071Z,8.93
2018-11-28T10:10:55.384Z,7.80
2018-11-28T10:13:23.707Z,5.67
2018-11-28T10:15:52.025Z,5.27
2018-11-28T10:18:20.432Z,5.03
2018-11-28T10:20:48.756Z,5.67
2018-11-28T10:23:17.087Z,4.10
2018-11-28T10:25:45.420Z,5.57
2018-11-28T10:28:13.747Z,4.77
2018-11-28T10:30:42.396Z,8.20
2018-11-28T10:33:10.716Z,6.47
2018-11-28T10:35:39.035Z,7.37
2018-11-28T10:38:07.369Z,7.00
2018-11-28T10:40:35.692Z,5.73
2018-11-28T10:43:04.053Z,5.73
2018-11-28T10:45:32.375Z,7.67
2018-11-28T10:48:00.691Z,6.20
2018-11-28T10:50:29.167Z,5.43
2018-11-28T10:52:57.481Z,5.10
2018-11-28T10:55:25.824Z,68.87
2018-11-28T10:57:54.142Z,10.10
2018-11-28T11:00:22.570Z,12.50
2018-11-28T11:02:50.895Z,5.60
2018-11-28T11:05:19.229Z,6.00
2018-11-28T11:07:50.489Z,8.57
2018-11-28T11:10:23.724Z,8.80
2018-11-28T11:12:52.050Z,8.00
2018-11-28T11:15:20.367Z,7.33
2018-11-28T11:17:48.704Z,8.30
2018-11-28T11:20:17.021Z,6.60
2018-11-28T11:22:45.347Z,8.47
2018-11-28T11:25:13.660Z,5.87
2018-11-28T11:27:41.996Z,6.23
2018-11-28T11:30:10.318Z,6.27
2018-11-28T11:32:38.661Z,13.63
2018-11-28T11:35:06.998Z,8.27
2018-11-28T11:37:35.303Z,9.37
2018-11-28T11:40:03.638Z,17.50
2018-11-28T11:42:31.988Z,19.03
2018-11-28T11:45:00.361Z,14.63
2018-11-28T11:47:28.692Z,18.23
2018-11-28T11:49:57.849Z,19.87
2018-11-28T11:52:26.433Z,19.57
2018-11-28T11:54:55.652Z,13.33
2018-11-28T11:57:23.983Z,9.70
2018-11-28T11:59:52.319Z,8.70
2018-11-28T12:02:20.672Z,12.37
2018-11-28T12:04:48.985Z,9.10
2018-11-28T12:07:17.335Z,11.37
2018-11-28T12:09:45.650Z,7.97
2018-11-28T12:12:13.984Z,21.23
2018-11-28T12:14:42.353Z,12.50
2018-11-28T12:17:10.666Z,8.07
2018-11-28T12:19:38.997Z,8.10
2018-11-28T12:22:07.315Z,8.40
2018-11-28T12:24:35.634Z,11.10
2018-11-28T12:27:03.974Z,11.47
2018-11-28T12:29:32.311Z,9.73
2018-11-28T12:32:00.642Z,7.80
2018-11-28T12:34:28.973Z,10.93
2018-11-28T12:36:57.306Z,7.77
2018-11-28T12:39:25.624Z,7.57
2018-11-28T12:41:54.920Z,11.80
2018-11-28T12:44:23.557Z,68.23
2018-11-28T12:46:51.947Z,21.77
2018-11-28T12:49:20.267Z,6.43
2018-11-28T12:51:49.096Z,6.97
2018-11-28T12:54:17.418Z,6.23
2018-11-28T12:56:45.739Z,8.17
2018-11-28T12:59:14.072Z,6.53
2018-11-28T13:01:42.701Z,9.57
2018-11-28T13:04:11.037Z,12.17
2018-11-28T13:06:39.371Z,9.27
2018-11-28T13:09:07.717Z,22.13
2018-11-28T13:11:36.055Z,53.03
2018-11-28T13:14:04.395Z,141.77
2018-11-28T13:16:32.734Z,11.13
2018-11-28T13:19:01.075Z,16.43
2018-11-28T13:21:29.408Z,18.83
2018-11-28T13:23:57.743Z,11.73
2018-11-28T13:26:26.073Z,14.10
2018-11-28T13:28:54.406Z,14.47
2018-11-28T13:31:22.734Z,10.73
2018-11-28T13:33:51.062Z,6.87
2018-11-28T13:36:22.648Z,9.43
2018-11-28T13:38:48.586Z,19.97
2018-11-28T13:41:16.078Z,9.63
2018-11-28T13:43:44.419Z,12.57
2018-11-28T13:46:12.756Z,11.87
2018-11-28T13:48:41.101Z,12.93
2018-11-28T13:51:09.443Z,19.20
2018-11-28T13:53:37.776Z,17.40
2018-11-28T13:58:34.455Z,53.10
2018-11-28T14:01:02.827Z,29.10
2018-11-28T14:03:31.164Z,28.97
2018-11-28T14:05:59.534Z,27.63
2018-11-28T14:08:27.881Z,23.20
2018-11-28T14:10:56.214Z,27.97
2018-11-28T14:13:24.553Z,28.50
2018-11-28T14:15:52.913Z,29.33
2018-11-28T14:18:21.281Z,40.60
2018-11-28T14:20:49.615Z,47.97
2018-11-28T14:23:17.949Z,41.77
2018-11-28T14:25:46.290Z,41.17
2018-11-28T14:28:14.620Z,37.30
2018-11-28T14:30:42.951Z,39.07
2018-11-28T14:33:11.310Z,35.50
2018-11-28T14:35:39.649Z,28.00
2018-11-28T14:38:07.988Z,30.10
2018-11-28T14:40:36.327Z,37.63
2018-11-28T14:43:04.662Z,43.50
2018-11-28T14:45:33.017Z,36.97
2018-11-28T14:48:01.339Z,37.67
2018-11-28T14:50:29.763Z,27.17
2018-11-28T14:52:58.106Z,23.27
2018-11-28T14:55:26.431Z,25.27
2018-11-28T14:57:54.767Z,23.67
2018-11-28T15:00:23.113Z,25.97
2018-11-28T15:02:51.463Z,30.60
2018-11-28T15:05:19.827Z,42.33
2018-11-28T15:07:48.159Z,26.60
2018-11-28T15:10:16.496Z,27.93
2018-11-28T15:12:45.188Z,30.27
2018-11-28T15:15:15.105Z,34.33
2018-11-28T15:17:43.435Z,44.67
2018-11-28T15:20:11.838Z,55.30
2018-11-28T15:22:40.134Z,54.83
2018-11-28T15:25:08.476Z,56.47
2018-11-28T15:27:36.806Z,71.33
2018-11-28T15:30:05.156Z,78.70
2018-11-28T15:32:33.476Z,96.97
2018-11-28T15:35:01.826Z,105.10
2018-11-28T15:37:30.164Z,91.07
2018-11-28T15:39:58.691Z,86.27
2018-11-28T15:42:27.037Z,78.00
2018-11-28T15:44:55.387Z,88.20
2018-11-28T15:47:23.738Z,91.73
2018-11-28T15:49:52.078Z,92.33
2018-11-28T15:52:20.433Z,89.03
2018-11-28T15:54:48.785Z,86.57
2018-11-28T15:57:17.127Z,90.73
2018-11-28T15:59:45.464Z,92.70
2018-11-28T16:02:13.810Z,100.53
2018-11-28T16:04:42.172Z,100.57
2018-11-28T16:07:10.506Z,105.37
2018-11-28T16:09:39.238Z,97.30
2018-11-28T16:12:07.578Z,100.97
2018-11-28T16:14:36.219Z,99.40
2018-11-28T16:17:04.567Z,98.63
2018-11-28T16:19:32.902Z,99.30
2018-11-28T16:22:01.252Z,102.80
2018-11-28T16:24:29.829Z,92.87
2018-11-28T16:26:57.914Z,97.90
2018-11-28T16:29:26.256Z,100.47
2018-11-28T16:31:54.604Z,99.33
2018-11-28T16:34:22.954Z,88.40
2018-11-28T16:36:51.297Z,93.63
2018-11-28T16:39:19.922Z,98.80
2018-11-28T16:41:48.262Z,102.17
2018-11-28T16:44:16.609Z,112.60
2018-11-28T16:46:44.944Z,105.33
2018-11-28T16:49:13.304Z,131.97
2018-11-28T16:51:41.650Z,107.37
2018-11-28T16:54:10.006Z,119.50
2018-11-28T16:56:38.559Z,105.03
2018-11-28T16:59:06.963Z,99.67
2018-11-28T17:01:35.325Z,102.53
2018-11-28T17:04:03.660Z,95.00
2018-11-28T17:06:32.006Z,94.00
2018-11-28T17:09:04.696Z,90.70
2018-11-28T17:11:33.657Z,103.17
2018-11-28T17:14:02.005Z,109.37
2018-11-28T17:16:31.084Z,100.67
2018-11-28T17:18:59.442Z,95.03
2018-11-28T17:21:27.830Z,98.40
2018-11-28T17:23:56.216Z,95.40
2018-11-28T17:26:24.582Z,95.10
2018-11-28T17:28:52.904Z,98.00
2018-11-28T17:31:21.316Z,106.50
2018-11-28T17:33:49.623Z,95.00
2018-11-28T17:36:18.031Z,92.40
2018-11-28T17:38:46.413Z,86.13
2018-11-28T17:41:14.974Z,88.17
2018-11-28T17:43:43.097Z,87.23
2018-11-28T17:46:11.449Z,89.13
2018-11-28T17:48:40.018Z,78.17
2018-11-28T17:51:08.153Z,79.50
2018-11-28T17:53:36.531Z,83.03
2018-11-28T17:56:05.290Z,82.43
2018-11-28T17:58:33.702Z,82.33
2018-11-28T18:01:02.060Z,79.93
2018-11-28T18:03:30.407Z,81.67
2018-11-28T18:05:58.760Z,97.47
2018-11-28T18:08:27.148Z,88.03
2018-11-28T18:10:55.503Z,83.90
2018-11-28T18:13:23.966Z,76.27
2018-11-28T18:15:52.320Z,79.07
2018-11-28T18:18:20.691Z,88.00
2018-11-28T18:20:50.371Z,90.80
2018-11-28T18:23:17.634Z,97.80
2018-11-28T18:25:45.979Z,95.40
2018-11-28T18:28:14.613Z,90.07
2018-11-28T18:30:43.025Z,94.90
2018-11-28T18:33:11.389Z,91.27
2018-11-28T18:35:39.724Z,87.40
2018-11-28T18:38:08.061Z,95.43
2018-11-28T18:40:36.413Z,128.77
2018-11-28T18:43:05.105Z,80.30
2018-11-28T18:45:33.446Z,72.70
2018-11-28T18:48:01.811Z,80.10
2018-11-28T18:50:30.180Z,88.27
2018-11-28T18:52:58.535Z,86.20
2018-11-28T18:55:26.913Z,58.90
2018-11-28T18:57:55.282Z,59.93
2018-11-28T19:00:23.660Z,53.13
2018-11-28T19:02:52.002Z,48.30
2018-11-28T19:05:20.353Z,43.13
2018-11-28T19:07:48.688Z,49.60
2018-11-28T19:10:17.037Z,45.03
2018-11-28T19:12:45.382Z,41.53
2018-11-28T19:15:13.724Z,38.40
2018-11-28T19:17:42.063Z,37.93
2018-11-28T19:20:10.413Z,48.23
2018-11-28T19:22:38.741Z,45.60
2018-11-28T19:25:07.105Z,42.23
2018-11-28T19:27:35.437Z,35.87
2018-11-28T19:30:03.804Z,39.60
2018-11-28T19:32:32.155Z,33.73
2018-11-28T19:35:00.518Z,32.07
2018-11-28T19:37:28.855Z,33.57
2018-11-28T19:39:57.183Z,37.97
2018-11-28T19:42:25.532Z,40.30
2018-11-28T19:44:53.883Z,36.90
2018-11-28T19:47:22.299Z,38.80
2018-11-28T19:49:50.642Z,34.17
2018-11-28T19:52:19.066Z,36.40
2018-11-28T19:54:47.427Z,38.83
2018-11-28T19:57:15.776Z,36.43
2018-11-28T19:59:44.861Z,34.40
2018-11-28T20:02:13.333Z,35.43
2018-11-28T20:04:41.646Z,35.80
2018-11-28T20:07:09.996Z,32.67
2018-11-28T20:09:38.353Z,35.50
2018-11-28T20:12:06.734Z,32.03
2018-11-28T20:14:35.156Z,33.90
2018-11-28T20:17:03.470Z,34.60
2018-11-28T20:19:31.804Z,35.63
2018-11-28T20:22:01.179Z,31.93
2018-11-28T20:24:29.524Z,38.07
2018-11-28T20:26:57.871Z,37.67
2018-11-28T20:29:26.209Z,43.13
2018-11-28T20:31:54.593Z,35.30
2018-11-28T20:34:23.039Z,36.13
2018-11-28T20:36:51.374Z,33.47
2018-11-28T20:39:19.710Z,35.37
2018-11-28T20:41:48.093Z,39.03
2018-11-28T20:44:16.444Z,35.67
2018-11-28T20:46:44.811Z,41.47
2018-11-28T20:49:13.135Z,56.33
2018-11-28T20:51:41.462Z,62.77
2018-11-28T20:54:09.791Z,42.43
2018-11-28T20:56:38.130Z,40.53
2018-11-28T20:59:06.473Z,45.23
2018-11-28T21:01:34.817Z,45.33
2018-11-28T21:04:03.159Z,55.50
2018-11-28T21:06:31.494Z,56.43
2018-11-28T21:08:59.846Z,45.47
2018-11-28T21:11:28.178Z,47.73
2018-11-28T21:13:56.513Z,40.60
2018-11-28T21:16:24.882Z,58.37
2018-11-28T21:18:53.208Z,44.00
2018-11-28T21:21:21.557Z,42.07
2018-11-28T21:23:49.920Z,34.00
2018-11-28T21:26:18.298Z,37.83
2018-11-28T21:28:46.682Z,33.33
2018-11-28T21:31:15.168Z,34.13
2018-11-28T21:33:43.516Z,32.53
2018-11-28T21:36:12.079Z,33.17
2018-11-28T21:38:40.196Z,36.40
2018-11-28T21:41:08.534Z,41.13
2018-11-28T21:43:36.888Z,32.43
2018-11-28T21:46:05.217Z,32.70
2018-11-28T21:48:33.567Z,33.57
2018-11-28T21:51:01.935Z,35.77
2018-11-28T21:53:30.357Z,38.17
2018-11-28T21:55:58.692Z,42.07
2018-11-28T21:58:28.457Z,45.40
2018-11-28T22:00:55.449Z,38.00
2018-11-28T22:03:24.266Z,34.57
2018-11-28T22:05:52.600Z,29.13
2018-11-28T22:08:21.573Z,29.67
2018-11-28T22:10:49.902Z,33.90
2018-11-28T22:13:18.249Z,31.97
2018-11-28T22:15:46.566Z,31.83
2018-11-28T22:18:14.992Z,28.73
2018-11-28T22:20:43.311Z,32.10
2018-11-28T22:23:11.664Z,32.03
2018-11-28T22:25:39.998Z,35.00
2018-11-28T22:28:08.559Z,28.47
2018-11-28T22:30:36.676Z,29.40
2018-11-28T22:33:05.006Z,30.90
2018-11-28T22:35:33.351Z,24.70
2018-11-28T22:38:01.685Z,28.87
2018-11-28T22:40:30.022Z,28.97
2018-11-28T22:42:58.363Z,27.33
2018-11-28T22:45:26.697Z,28.10
2018-11-28T22:47:55.034Z,30.13
2018-11-28T22:50:23.373Z,30.97
2018-11-28T22:52:51.711Z,31.10
2018-11-28T22:55:20.056Z,28.60
2018-11-28T22:57:48.388Z,31.87
2018-11-28T23:00:16.868Z,29.20
2018-11-28T23:02:45.190Z,31.00
2018-11-28T23:05:13.417Z,31.27
2018-11-28T23:07:43.023Z,32.00
2018-11-28T23:10:11.374Z,27.43
2018-11-28T23:12:39.731Z,30.40
2018-11-28T23:15:08.064Z,29.73
2018-11-28T23:17:36.400Z,30.93
2018-11-28T23:20:04.721Z,29.73
2018-11-28T23:22:33.054Z,29.07
2018-11-28T23:25:01.395Z,36.07
2018-11-28T23:27:29.715Z,34.70
2018-11-28T23:29:58.043Z,35.90
2018-11-28T23:32:26.360Z,30.10
2018-11-28T23:34:54.690Z,30.30
2018-11-28T23:37:23.016Z,28.87
2018-11-28T23:39:51.364Z,29.00
2018-11-28T23:42:19.692Z,31.60
2018-11-28T23:44:48.027Z,32.40
2018-11-28T23:47:16.374Z,30.20
2018-11-28T23:49:44.708Z,34.37
2018-11-28T23:52:13.055Z,28.30
2018-11-28T23:54:41.397Z,30.47
2018-11-28T23:57:09.729Z,30.43
2018-11-28T23:59:38.070Z,30.60
